createdAt,value
2023-03-28T00:00:00.489Z,14
2023-03-28T00:01:07.535Z,14
2023-03-28T00:02:14.430Z,15
2023-03-28T00:03:21.208Z,13
2023-03-28T00:04:27.984Z,14
2023-03-28T00:05:34.778Z,15
2023-03-28T00:06:41.638Z,15
2023-03-28T00:07:48.500Z,14
2023-03-28T00:08:55.292Z,14
2023-03-28T00:10:02.140Z,15
2023-03-28T00:11:09.092Z,14
2023-03-28T00:12:15.909Z,14
2023-03-28T00:13:25.812Z,15
2023-03-28T00:14:32.665Z,15
2023-03-28T00:15:39.535Z,16
2023-03-28T00:16:46.305Z,16
2023-03-28T00:17:53.081Z,17
2023-03-28T00:18:59.882Z,19
2023-03-28T00:20:08.369Z,20
2023-03-28T00:21:13.996Z,21
2023-03-28T00:22:20.819Z,21
2023-03-28T00:23:27.604Z,21
2023-03-28T00:24:34.473Z,18
2023-03-28T00:25:41.372Z,17
2023-03-28T00:26:48.275Z,17
2023-03-28T00:27:55.069Z,17
2023-03-28T00:29:01.959Z,16
2023-03-28T00:30:08.773Z,15
2023-03-28T00:31:15.648Z,15
2023-03-28T00:32:22.578Z,14
2023-03-28T00:33:29.400Z,13
2023-03-28T00:34:36.175Z,13
2023-03-28T00:35:43.099Z,12
2023-03-28T00:36:49.960Z,12
2023-03-28T00:37:56.796Z,14
2023-03-28T00:39:03.673Z,13
2023-03-28T00:40:10.557Z,12
2023-03-28T00:41:17.425Z,12
2023-03-28T00:42:24.236Z,12
2023-03-28T00:43:31.089Z,12
2023-03-28T00:44:43.756Z,10
2023-03-28T00:46:06.459Z,11
2023-03-28T00:47:02.404Z,10
2023-03-28T00:48:14.165Z,10
2023-03-28T00:49:16.079Z,10
2023-03-28T00:50:22.911Z,10
2023-03-28T00:51:32.526Z,11
2023-03-28T00:52:42.229Z,9
2023-03-28T00:53:56.948Z,9
2023-03-28T00:55:03.832Z,10
2023-03-28T00:56:10.672Z,10
2023-03-28T00:57:47.238Z,9
2023-03-28T00:58:59.611Z,10
2023-03-28T01:00:06.490Z,9
2023-03-28T01:01:16.342Z,9
2023-03-28T01:02:23.157Z,9
2023-03-28T01:03:30.038Z,9
2023-03-28T01:04:36.888Z,9
2023-03-28T01:05:43.881Z,9
2023-03-28T01:06:50.674Z,8
2023-03-28T01:07:57.448Z,8
2023-03-28T01:09:09.325Z,9
2023-03-28T01:10:16.148Z,9
2023-03-28T01:11:23.086Z,9
2023-03-28T01:12:29.909Z,9
2023-03-28T01:13:36.744Z,9
2023-03-28T01:14:43.594Z,8
2023-03-28T01:15:50.503Z,9
2023-03-28T01:16:57.177Z,9
2023-03-28T01:18:04.027Z,9
2023-03-28T01:19:10.947Z,8
2023-03-28T01:20:22.837Z,9
2023-03-28T01:21:39.725Z,9
2023-03-28T01:22:56.148Z,8
2023-03-28T01:24:11.031Z,9
2023-03-28T01:25:20.749Z,9
2023-03-28T01:26:33.242Z,9
2023-03-28T01:27:50.129Z,9
2023-03-28T01:28:59.924Z,9
2023-03-28T01:30:16.871Z,9
2023-03-28T01:31:33.874Z,9
2023-03-28T01:32:50.756Z,9
2023-03-28T01:34:02.739Z,8
2023-03-28T01:35:17.645Z,8
2023-03-28T01:36:33.724Z,9
2023-03-28T01:37:44.456Z,9
2023-03-28T01:39:01.401Z,9
2023-03-28T01:40:18.388Z,8
2023-03-28T01:41:30.277Z,9
2023-03-28T01:42:42.164Z,8
2023-03-28T01:43:54.519Z,8
2023-03-28T01:45:04.231Z,8
2023-03-28T01:46:16.169Z,9
2023-03-28T01:47:25.717Z,8
2023-03-28T01:48:37.542Z,8
2023-03-28T01:49:49.378Z,8
2023-03-28T01:51:02.182Z,8
2023-03-28T01:52:16.830Z,8
2023-03-28T01:53:33.817Z,8
2023-03-28T01:54:45.675Z,8
2023-03-28T01:56:02.758Z,8
2023-03-28T01:57:19.804Z,8
2023-03-28T01:58:29.225Z,8
2023-03-28T01:59:46.361Z,8
2023-03-28T02:01:00.843Z,9
2023-03-28T02:02:13.308Z,8
2023-03-28T02:03:30.261Z,8
2023-03-28T02:04:39.753Z,8
2023-03-28T02:05:46.577Z,8
2023-03-28T02:06:53.357Z,8
2023-03-28T02:08:00.196Z,8
2023-03-28T02:09:06.993Z,8
2023-03-28T02:10:13.869Z,8
2023-03-28T02:11:20.718Z,8
2023-03-28T02:12:27.499Z,8
2023-03-28T02:13:34.320Z,8
2023-03-28T02:14:46.191Z,7
2023-03-28T02:15:53.108Z,8
2023-03-28T02:16:59.830Z,7
2023-03-28T02:18:06.684Z,7
2023-03-28T02:19:18.502Z,8
2023-03-28T02:20:25.318Z,7
2023-03-28T02:21:32.232Z,7
2023-03-28T02:22:44.089Z,7
2023-03-28T02:23:55.976Z,7
2023-03-28T02:25:02.808Z,7
2023-03-28T02:26:09.788Z,7
2023-03-28T02:27:16.585Z,7
2023-03-28T02:28:23.406Z,6
2023-03-28T02:29:30.222Z,7
2023-03-28T02:30:37.006Z,6
2023-03-28T02:31:43.944Z,7
2023-03-28T02:32:50.844Z,7
2023-03-28T02:34:02.625Z,7
2023-03-28T02:35:09.478Z,6
2023-03-28T02:36:16.290Z,7
2023-03-28T02:37:33.224Z,6
2023-03-28T02:38:45.078Z,7
2023-03-28T02:39:56.935Z,6
2023-03-28T02:41:11.498Z,6
2023-03-28T02:42:26.101Z,6
2023-03-28T02:43:43.049Z,5
2023-03-28T02:44:54.905Z,6
2023-03-28T02:46:06.953Z,5
2023-03-28T02:47:23.883Z,6
2023-03-28T02:48:35.758Z,5
2023-03-28T02:49:51.001Z,5
2023-03-28T02:51:04.961Z,5
2023-03-28T02:52:11.722Z,5
2023-03-28T02:53:28.673Z,5
2023-03-28T02:54:40.836Z,4
2023-03-28T02:55:52.679Z,4
2023-03-28T02:57:02.069Z,5
2023-03-28T02:58:13.929Z,5
2023-03-28T02:59:25.736Z,4
2023-03-28T03:00:32.622Z,4
2023-03-28T03:01:39.424Z,5
2023-03-28T03:02:46.383Z,5
2023-03-28T03:03:54.093Z,5
2023-03-28T03:05:00.051Z,5
2023-03-28T03:06:06.941Z,5
2023-03-28T03:07:13.823Z,5
2023-03-28T03:08:20.671Z,5
2023-03-28T03:09:27.509Z,5
2023-03-28T03:10:34.486Z,5
2023-03-28T03:11:41.291Z,5
2023-03-28T03:12:48.099Z,5
2023-03-28T03:13:54.917Z,5
2023-03-28T03:15:01.793Z,5
2023-03-28T03:16:08.856Z,6
2023-03-28T03:17:15.659Z,6
2023-03-28T03:18:22.513Z,6
2023-03-28T03:19:29.380Z,8
2023-03-28T03:20:36.257Z,12
2023-03-28T03:21:43.141Z,48
2023-03-28T03:22:49.959Z,21
2023-03-28T03:23:59.721Z,11
2023-03-28T03:25:06.771Z,12
2023-03-28T03:26:13.802Z,13
2023-03-28T03:27:20.736Z,11
2023-03-28T03:28:27.565Z,9
2023-03-28T03:29:38.340Z,8
2023-03-28T03:30:41.309Z,9
2023-03-28T03:31:48.148Z,7
2023-03-28T03:32:55.068Z,8
2023-03-28T03:34:01.877Z,9
2023-03-28T03:35:08.651Z,6
2023-03-28T03:36:15.499Z,6
2023-03-28T03:37:22.300Z,6
2023-03-28T03:38:29.309Z,6
2023-03-28T03:39:36.193Z,6
2023-03-28T03:40:43.005Z,6
2023-03-28T03:41:49.742Z,6
2023-03-28T03:42:56.535Z,6
2023-03-28T03:44:03.372Z,6
2023-03-28T03:45:10.256Z,6
2023-03-28T03:46:17.055Z,7
2023-03-28T03:47:23.829Z,7
2023-03-28T03:48:30.631Z,8
2023-03-28T03:49:37.448Z,7
2023-03-28T03:50:44.243Z,9
2023-03-28T03:51:51.057Z,8
2023-03-28T03:52:57.864Z,8
2023-03-28T03:54:04.676Z,8
2023-03-28T03:55:11.409Z,8
2023-03-28T03:56:18.292Z,9
2023-03-28T03:57:25.129Z,9
2023-03-28T03:58:32.020Z,10
2023-03-28T03:59:38.791Z,11
2023-03-28T04:00:45.686Z,11
2023-03-28T04:01:52.628Z,11
2023-03-28T04:02:59.466Z,11
2023-03-28T04:04:06.274Z,12
2023-03-28T04:05:13.060Z,12
2023-03-28T04:06:19.863Z,12
2023-03-28T04:07:26.827Z,12
2023-03-28T04:08:33.726Z,11
2023-03-28T04:09:40.603Z,10
2023-03-28T04:10:47.503Z,9
2023-03-28T04:11:54.258Z,9
2023-03-28T04:13:01.066Z,8
2023-03-28T04:14:08.055Z,8
2023-03-28T04:15:14.863Z,6
2023-03-28T04:16:21.617Z,6
2023-03-28T04:17:28.479Z,5
2023-03-28T04:18:35.264Z,5
2023-03-28T04:19:42.082Z,4
2023-03-28T04:20:48.898Z,5
2023-03-28T04:21:55.707Z,5
2023-03-28T04:23:02.487Z,5
2023-03-28T04:24:09.261Z,5
2023-03-28T04:25:16.151Z,5
2023-03-28T04:26:22.902Z,5
2023-03-28T04:27:29.732Z,5
2023-03-28T04:28:36.526Z,4
2023-03-28T04:29:43.276Z,4
2023-03-28T04:30:50.197Z,3
2023-03-28T04:31:56.978Z,3
2023-03-28T04:33:03.881Z,3
2023-03-28T04:34:10.611Z,3
2023-03-28T04:35:17.398Z,2
2023-03-28T04:36:24.306Z,3
2023-03-28T04:37:31.216Z,3
2023-03-28T04:38:38.027Z,3
2023-03-28T04:39:44.830Z,3
2023-03-28T04:40:51.632Z,2
2023-03-28T04:41:58.487Z,3
2023-03-28T04:43:05.335Z,3
2023-03-28T04:44:12.138Z,3
2023-03-28T04:45:18.958Z,4
2023-03-28T04:46:25.757Z,4
2023-03-28T04:47:32.595Z,4
2023-03-28T04:48:42.394Z,4
2023-03-28T04:49:49.276Z,4
2023-03-28T04:50:56.064Z,4
2023-03-28T04:52:02.832Z,4
2023-03-28T04:53:09.661Z,4
2023-03-28T04:54:16.440Z,5
2023-03-28T04:55:23.297Z,4
2023-03-28T04:56:30.169Z,4
2023-03-28T04:57:36.936Z,4
2023-03-28T04:58:43.762Z,5
2023-03-28T04:59:50.563Z,5
2023-03-28T05:00:57.628Z,4
2023-03-28T05:02:07.152Z,5
2023-03-28T05:03:14.077Z,5
2023-03-28T05:04:23.643Z,5
2023-03-28T05:05:30.503Z,5
2023-03-28T05:06:37.320Z,5
2023-03-28T05:07:44.209Z,5
2023-03-28T05:08:51.157Z,4
2023-03-28T05:09:58.100Z,4
2023-03-28T05:11:04.975Z,4
2023-03-28T05:12:11.807Z,4
2023-03-28T05:13:18.615Z,4
2023-03-28T05:14:25.551Z,5
2023-03-28T05:15:32.393Z,5
2023-03-28T05:16:39.230Z,7
2023-03-28T05:17:46.116Z,7
2023-03-28T05:18:52.966Z,5
2023-03-28T05:19:59.978Z,6
2023-03-28T05:21:07.241Z,5
2023-03-28T05:22:14.056Z,5
2023-03-28T05:23:20.976Z,5
2023-03-28T05:24:27.961Z,5
2023-03-28T05:25:34.828Z,10
2023-03-28T05:26:41.616Z,8
2023-03-28T05:27:48.579Z,7
2023-03-28T05:28:55.353Z,8
2023-03-28T05:30:02.219Z,7
2023-03-28T05:31:09.411Z,6
2023-03-28T05:32:16.261Z,6
2023-03-28T05:33:23.156Z,7
2023-03-28T05:34:29.918Z,5
2023-03-28T05:35:36.803Z,6
2023-03-28T05:36:43.691Z,4
2023-03-28T05:37:50.637Z,4
2023-03-28T05:38:57.601Z,4
2023-03-28T05:40:04.417Z,5
2023-03-28T05:41:11.513Z,4
2023-03-28T05:42:18.354Z,5
2023-03-28T05:43:25.263Z,6
2023-03-28T05:44:32.171Z,6
2023-03-28T05:45:39.169Z,6
2023-03-28T05:46:45.927Z,6
2023-03-28T05:47:52.780Z,6
2023-03-28T05:48:59.575Z,5
2023-03-28T05:50:06.491Z,6
2023-03-28T05:51:13.422Z,6
2023-03-28T05:52:20.221Z,6
2023-03-28T05:53:27.143Z,6
2023-03-28T05:54:33.995Z,6
2023-03-28T05:55:40.873Z,5
2023-03-28T05:56:47.861Z,4
2023-03-28T05:57:55.087Z,5
2023-03-28T05:59:02.035Z,4
2023-03-28T06:00:08.977Z,5
2023-03-28T06:01:16.047Z,5
2023-03-28T06:02:23.081Z,5
2023-03-28T06:03:29.808Z,4
2023-03-28T06:04:36.788Z,5
2023-03-28T06:05:43.661Z,5
2023-03-28T06:06:50.540Z,4
2023-03-28T06:07:57.431Z,5
2023-03-28T06:09:04.377Z,5
2023-03-28T06:10:11.280Z,5
2023-03-28T06:11:18.143Z,5
2023-03-28T06:12:24.997Z,5
2023-03-28T06:13:31.980Z,4
2023-03-28T06:14:38.892Z,5
2023-03-28T06:15:45.725Z,5
2023-03-28T06:16:52.619Z,5
2023-03-28T06:17:59.449Z,4
2023-03-28T06:19:17.030Z,4
2023-03-28T06:20:13.160Z,4
2023-03-28T06:21:20.108Z,5
2023-03-28T06:22:26.949Z,4
2023-03-28T06:23:33.825Z,4
2023-03-28T06:24:40.671Z,4
2023-03-28T06:25:47.546Z,4
2023-03-28T06:26:54.435Z,3
2023-03-28T06:28:01.256Z,3
2023-03-28T06:29:08.164Z,3
2023-03-28T06:30:15.036Z,3
2023-03-28T06:31:21.946Z,3
2023-03-28T06:32:28.841Z,3
2023-03-28T06:33:35.685Z,3
2023-03-28T06:34:45.133Z,3
2023-03-28T06:35:52.033Z,2
2023-03-28T06:36:58.833Z,3
2023-03-28T06:38:05.707Z,3
2023-03-28T06:39:12.677Z,3
2023-03-28T06:40:19.506Z,3
2023-03-28T06:41:26.324Z,2
2023-03-28T06:42:33.258Z,3
2023-03-28T06:43:41.642Z,2
2023-03-28T06:44:48.636Z,2
2023-03-28T06:45:55.677Z,3
2023-03-28T06:47:02.538Z,2
2023-03-28T06:48:09.402Z,2
2023-03-28T06:49:16.204Z,2
2023-03-28T06:50:23.035Z,1
2023-03-28T06:51:29.958Z,1
2023-03-28T06:52:36.802Z,2
2023-03-28T06:53:43.627Z,1
2023-03-28T06:54:50.463Z,1
2023-03-28T06:55:57.363Z,1
2023-03-28T06:57:04.380Z,1
2023-03-28T06:58:11.139Z,1
2023-03-28T06:59:18.095Z,1
2023-03-28T07:00:25.020Z,1
2023-03-28T07:01:31.922Z,1
2023-03-28T07:02:38.793Z,1
2023-03-28T07:03:45.729Z,1
2023-03-28T07:04:52.394Z,1
2023-03-28T07:05:59.200Z,1
2023-03-28T07:07:09.154Z,1
2023-03-28T07:08:16.036Z,2
2023-03-28T07:09:22.887Z,3
2023-03-28T07:10:29.809Z,9
2023-03-28T07:11:36.634Z,4
2023-03-28T07:12:43.487Z,8
2023-03-28T07:13:50.336Z,33
2023-03-28T07:14:57.167Z,35
2023-03-28T07:16:04.144Z,106
2023-03-28T07:17:11.230Z,85
2023-03-28T07:18:18.146Z,101
2023-03-28T07:19:24.922Z,68
2023-03-28T07:20:31.796Z,124
2023-03-28T07:21:38.638Z,109
2023-03-28T07:22:45.550Z,127
2023-03-28T07:23:52.493Z,73
2023-03-28T07:24:59.274Z,80
2023-03-28T07:26:06.077Z,103
2023-03-28T07:27:15.904Z,64
2023-03-28T07:28:19.807Z,47
2023-03-28T07:29:26.600Z,44
2023-03-28T07:30:33.450Z,45
2023-03-28T07:31:40.285Z,74
2023-03-28T07:32:54.553Z,27
2023-03-28T07:33:54.039Z,29
2023-03-28T07:35:00.874Z,30
2023-03-28T07:36:07.984Z,15
2023-03-28T07:37:17.454Z,21
2023-03-28T07:38:24.317Z,11
2023-03-28T07:39:31.161Z,9
2023-03-28T07:40:38.194Z,11
2023-03-28T07:41:45.047Z,6
2023-03-28T07:42:51.847Z,5
2023-03-28T07:43:58.638Z,7
2023-03-28T07:45:05.453Z,7
2023-03-28T07:46:12.537Z,5
2023-03-28T07:47:19.403Z,3
2023-03-28T07:48:26.324Z,3
2023-03-28T07:49:33.210Z,2
2023-03-28T07:50:40.037Z,2
2023-03-28T07:51:46.977Z,2
2023-03-28T07:52:53.885Z,2
2023-03-28T07:54:00.843Z,2
2023-03-28T07:55:07.645Z,1
2023-03-28T07:56:14.556Z,2
2023-03-28T07:57:21.552Z,2
2023-03-28T07:58:28.541Z,2
2023-03-28T07:59:35.528Z,1
2023-03-28T08:00:42.438Z,1
2023-03-28T08:01:49.329Z,1
2023-03-28T08:02:56.248Z,3
2023-03-28T08:04:03.432Z,4
2023-03-28T08:05:10.135Z,6
2023-03-28T08:06:31.313Z,6
2023-03-28T08:07:23.819Z,4
2023-03-28T08:08:30.690Z,3
2023-03-28T08:09:37.628Z,3
2023-03-28T08:10:44.454Z,2
2023-03-28T08:11:51.384Z,1
2023-03-28T08:12:58.195Z,2
2023-03-28T08:14:05.133Z,2
2023-03-28T08:15:12.098Z,2
2023-03-28T08:16:19.066Z,1
2023-03-28T08:17:25.913Z,2
2023-03-28T08:18:32.749Z,2
2023-03-28T08:19:39.649Z,3
2023-03-28T08:20:46.639Z,2
2023-03-28T08:21:53.480Z,5
2023-03-28T08:23:00.294Z,11
2023-03-28T08:24:07.214Z,6
2023-03-28T08:25:14.139Z,9
2023-03-28T08:26:20.971Z,14
2023-03-28T08:27:27.767Z,8
2023-03-28T08:28:34.570Z,9
2023-03-28T08:29:41.347Z,7
2023-03-28T08:30:48.273Z,6
2023-03-28T08:32:04.748Z,7
2023-03-28T08:33:11.645Z,2
2023-03-28T08:34:18.428Z,5
2023-03-28T08:35:25.315Z,2
2023-03-28T08:36:32.117Z,4
2023-03-28T08:37:38.973Z,3
2023-03-28T08:38:45.730Z,2
2023-03-28T08:39:55.204Z,2
2023-03-28T08:41:02.184Z,7
2023-03-28T08:42:16.906Z,5
2023-03-28T08:43:23.683Z,6
2023-03-28T08:44:38.473Z,4
2023-03-28T08:45:48.122Z,2
2023-03-28T08:46:54.957Z,8
2023-03-28T08:48:01.814Z,7
2023-03-28T08:49:13.654Z,7
2023-03-28T08:50:20.573Z,8
2023-03-28T08:51:32.365Z,10
2023-03-28T08:52:39.252Z,5
2023-03-28T08:53:46.084Z,6
2023-03-28T08:54:52.943Z,4
2023-03-28T08:55:59.698Z,5
2023-03-28T08:57:06.503Z,5
2023-03-28T08:58:13.592Z,7
2023-03-28T08:59:20.450Z,5
2023-03-28T09:00:32.383Z,9
2023-03-28T09:01:39.633Z,13
2023-03-28T09:02:48.046Z,9
2023-03-28T09:03:54.455Z,7
2023-03-28T09:05:12.308Z,6
2023-03-28T09:06:08.282Z,6
2023-03-28T09:07:20.146Z,6
2023-03-28T09:08:37.047Z,8
2023-03-28T09:09:48.922Z,6
2023-03-28T09:11:05.842Z,4
2023-03-28T09:12:20.503Z,6
2023-03-28T09:13:32.416Z,7
2023-03-28T09:14:39.228Z,2
2023-03-28T09:15:49.029Z,3
2023-03-28T09:17:03.656Z,4
2023-03-28T09:18:18.477Z,4
2023-03-28T09:19:37.291Z,3
2023-03-28T09:20:37.175Z,5
2023-03-28T09:22:02.269Z,2
2023-03-28T09:23:11.160Z,2
2023-03-28T09:24:28.241Z,2
2023-03-28T09:25:45.175Z,2
2023-03-28T09:26:52.083Z,2
2023-03-28T09:28:03.995Z,2
2023-03-28T09:29:15.927Z,2
2023-03-28T09:30:25.611Z,4
2023-03-28T09:31:32.451Z,4
2023-03-28T09:32:44.369Z,2
2023-03-28T09:33:51.160Z,3
2023-03-28T09:34:57.977Z,3
2023-03-28T09:36:04.900Z,3
2023-03-28T09:37:11.793Z,2
2023-03-28T09:38:24.281Z,4
2023-03-28T09:39:36.492Z,4
2023-03-28T09:40:43.373Z,4
2023-03-28T09:41:50.282Z,4
2023-03-28T09:43:00.132Z,5
2023-03-28T09:44:15.134Z,4
2023-03-28T09:45:21.916Z,4
2023-03-28T09:46:38.802Z,3
2023-03-28T09:47:45.778Z,4
2023-03-28T09:48:52.600Z,4
2023-03-28T09:50:09.921Z,3
2023-03-28T09:51:06.369Z,3
2023-03-28T09:52:16.190Z,3
2023-03-28T09:53:23.032Z,3
2023-03-28T09:54:29.966Z,2
2023-03-28T09:55:36.758Z,2
2023-03-28T09:56:43.579Z,2
2023-03-28T09:57:50.341Z,2
2023-03-28T09:59:02.287Z,3
2023-03-28T10:00:09.106Z,3
2023-03-28T10:01:16.393Z,3
2023-03-28T10:02:30.884Z,3
2023-03-28T10:03:37.626Z,3
2023-03-28T10:04:44.415Z,3
2023-03-28T10:05:51.277Z,4
2023-03-28T10:06:58.198Z,8
2023-03-28T10:08:12.634Z,9
2023-03-28T10:09:27.326Z,19
2023-03-28T10:10:34.127Z,9
2023-03-28T10:11:40.995Z,7
2023-03-28T10:12:47.833Z,3
2023-03-28T10:13:54.606Z,4
2023-03-28T10:15:01.494Z,6
2023-03-28T10:16:08.642Z,8
2023-03-28T10:17:15.332Z,5
2023-03-28T10:18:32.202Z,6
2023-03-28T10:19:38.947Z,3
2023-03-28T10:20:45.753Z,8
2023-03-28T10:21:52.540Z,7
2023-03-28T10:22:59.368Z,3
2023-03-28T10:24:06.310Z,3
2023-03-28T10:25:15.955Z,4
2023-03-28T10:26:22.792Z,6
2023-03-28T10:27:29.570Z,3
2023-03-28T10:28:36.370Z,3
2023-03-28T10:29:43.306Z,3
2023-03-28T10:30:50.121Z,3
2023-03-28T10:31:56.862Z,3
2023-03-28T10:33:03.760Z,3
2023-03-28T10:34:13.371Z,3
2023-03-28T10:35:26.465Z,2
2023-03-28T10:36:32.078Z,5
2023-03-28T10:37:38.931Z,4
2023-03-28T10:38:45.829Z,6
2023-03-28T10:39:52.695Z,8
2023-03-28T10:41:07.070Z,5
2023-03-28T10:42:14.044Z,4
2023-03-28T10:43:20.876Z,3
2023-03-28T10:44:27.704Z,2
2023-03-28T10:45:34.535Z,3
2023-03-28T10:46:41.387Z,3
2023-03-28T10:47:48.180Z,3
2023-03-28T10:48:55.019Z,2
2023-03-28T10:50:01.960Z,3
2023-03-28T10:51:08.931Z,3
2023-03-28T10:52:15.683Z,3
2023-03-28T10:53:32.688Z,4
2023-03-28T10:54:44.754Z,3
2023-03-28T10:55:58.187Z,2
2023-03-28T10:57:08.484Z,1
2023-03-28T10:58:18.032Z,2
2023-03-28T10:59:27.717Z,2
2023-03-28T11:00:39.720Z,2
2023-03-28T11:01:51.634Z,2
2023-03-28T11:03:04.647Z,3
2023-03-28T11:04:21.472Z,3
2023-03-28T11:05:30.779Z,3
2023-03-28T11:06:45.642Z,3
2023-03-28T11:07:55.376Z,3
2023-03-28T11:09:07.345Z,3
2023-03-28T11:10:22.796Z,2
2023-03-28T11:11:27.095Z,3
2023-03-28T11:12:53.913Z,5
2023-03-28T11:13:53.613Z,10
2023-03-28T11:15:08.462Z,9
2023-03-28T11:16:23.164Z,16
2023-03-28T11:17:38.099Z,12
2023-03-28T11:18:50.023Z,36
2023-03-28T11:20:06.983Z,45
2023-03-28T11:21:21.543Z,9
2023-03-28T11:22:34.262Z,41
2023-03-28T11:23:44.019Z,21
2023-03-28T11:25:01.371Z,59
2023-03-28T11:26:18.285Z,33
2023-03-28T11:27:30.226Z,19
2023-03-28T11:28:47.266Z,35
2023-03-28T11:29:59.270Z,44
2023-03-28T11:31:08.736Z,29
2023-03-28T11:32:15.571Z,27
2023-03-28T11:33:25.254Z,3
2023-03-28T11:34:34.737Z,4
2023-03-28T11:35:49.609Z,2
2023-03-28T11:36:56.499Z,2
2023-03-28T11:38:08.334Z,5
2023-03-28T11:39:20.162Z,5
2023-03-28T11:40:29.676Z,5
2023-03-28T11:41:42.143Z,2
2023-03-28T11:42:48.915Z,1
2023-03-28T11:43:58.670Z,2
2023-03-28T11:45:10.555Z,2
2023-03-28T11:46:27.556Z,2
2023-03-28T11:47:34.345Z,2
2023-03-28T11:48:41.200Z,2
2023-03-28T11:49:56.130Z,1
2023-03-28T11:51:11.011Z,1
2023-03-28T11:52:20.870Z,2
2023-03-28T11:53:30.401Z,3
2023-03-28T11:54:45.219Z,3
2023-03-28T11:55:57.177Z,3
2023-03-28T11:57:06.637Z,4
2023-03-28T11:58:21.138Z,3
2023-03-28T11:59:28.004Z,3
2023-03-28T12:00:41.804Z,3
2023-03-28T12:01:49.255Z,1
2023-03-28T12:03:01.216Z,2
2023-03-28T12:04:16.280Z,2
2023-03-28T12:05:23.081Z,2
2023-03-28T12:06:35.029Z,1
2023-03-28T12:07:49.580Z,2
2023-03-28T12:09:06.607Z,3
2023-03-28T12:10:13.404Z,2
2023-03-28T12:11:30.316Z,2
2023-03-28T12:12:37.213Z,2
2023-03-28T12:15:03.731Z,2
2023-03-28T12:16:10.937Z,2
2023-03-28T12:17:20.416Z,2
2023-03-28T12:18:27.206Z,2
2023-03-28T12:19:42.011Z,3
2023-03-28T12:20:48.903Z,3
2023-03-28T12:21:55.681Z,3
2023-03-28T12:23:02.455Z,3
2023-03-28T12:24:17.120Z,2
2023-03-28T12:25:26.712Z,2
2023-03-28T12:26:36.100Z,2
2023-03-28T12:27:53.215Z,2
2023-03-28T12:29:08.240Z,2
2023-03-28T12:30:17.860Z,2
2023-03-28T12:31:27.717Z,2
2023-03-28T12:32:34.539Z,2
2023-03-28T12:33:43.928Z,2
2023-03-28T12:34:55.871Z,2
2023-03-28T12:36:07.793Z,2
2023-03-28T12:37:19.601Z,2
2023-03-28T12:38:32.264Z,2
2023-03-28T12:39:49.231Z,3
2023-03-28T12:41:04.189Z,2
2023-03-28T12:42:11.034Z,3
2023-03-28T12:43:17.867Z,2
2023-03-28T12:44:24.661Z,3
2023-03-28T12:45:31.466Z,2
2023-03-28T12:46:41.458Z,2
2023-03-28T12:47:48.132Z,2
2023-03-28T12:48:54.914Z,3
2023-03-28T12:50:01.811Z,3
2023-03-28T12:51:08.624Z,3
2023-03-28T12:52:20.864Z,3
2023-03-28T12:53:27.664Z,4
2023-03-28T12:54:34.465Z,3
2023-03-28T12:55:51.424Z,3
2023-03-28T12:56:58.227Z,4
2023-03-28T12:58:05.046Z,3
2023-03-28T12:59:16.881Z,5
2023-03-28T13:00:35.428Z,4
2023-03-28T13:01:48.722Z,2
2023-03-28T13:02:55.569Z,2
2023-03-28T13:04:07.475Z,2
2023-03-28T13:05:16.056Z,2
2023-03-28T13:06:23.828Z,2
2023-03-28T13:07:33.292Z,5
2023-03-28T13:08:50.308Z,3
2023-03-28T13:10:02.237Z,3
2023-03-28T13:11:19.177Z,3
2023-03-28T13:12:31.038Z,12
2023-03-28T13:13:42.937Z,14
2023-03-28T13:14:57.464Z,23
2023-03-28T13:16:12.036Z,21
2023-03-28T13:17:18.817Z,33
2023-03-28T13:18:30.643Z,39
2023-03-28T13:19:37.432Z,48
2023-03-28T13:20:47.084Z,59
2023-03-28T13:21:53.873Z,28
2023-03-28T13:23:00.729Z,22
2023-03-28T13:24:10.250Z,43
2023-03-28T13:25:27.184Z,30
2023-03-28T13:26:33.949Z,20
2023-03-28T13:27:50.913Z,32
2023-03-28T13:29:02.849Z,16
2023-03-28T13:30:09.744Z,10
2023-03-28T13:31:21.824Z,13
2023-03-28T13:32:28.613Z,10
2023-03-28T13:33:35.385Z,10
2023-03-28T13:34:42.440Z,6
2023-03-28T13:35:49.366Z,4
2023-03-28T13:37:01.195Z,8
2023-03-28T13:38:18.154Z,4
2023-03-28T13:39:27.933Z,4
2023-03-28T13:40:34.784Z,3
2023-03-28T13:41:46.840Z,5
2023-03-28T13:42:53.774Z,4
2023-03-28T13:44:00.606Z,6
2023-03-28T13:45:12.933Z,4
2023-03-28T13:46:25.055Z,4
2023-03-28T13:47:36.945Z,5
2023-03-28T13:48:43.810Z,5
2023-03-28T13:49:55.714Z,4
2023-03-28T13:51:12.582Z,4
2023-03-28T13:52:21.993Z,3
2023-03-28T13:53:37.570Z,4
2023-03-28T13:54:35.651Z,4
2023-03-28T13:55:42.534Z,5
2023-03-28T13:56:49.430Z,9
2023-03-28T13:57:56.184Z,6
2023-03-28T13:59:02.925Z,4
2023-03-28T14:00:09.836Z,5
2023-03-28T14:01:17.048Z,6
2023-03-28T14:02:23.888Z,5
2023-03-28T14:03:39.622Z,5
2023-03-28T14:04:45.383Z,3
2023-03-28T14:05:57.262Z,3
2023-03-28T14:07:04.059Z,4
2023-03-28T14:08:10.972Z,3
2023-03-28T14:09:17.777Z,2
2023-03-28T14:10:24.645Z,4
2023-03-28T14:11:36.521Z,4
2023-03-28T14:12:43.295Z,3
2023-03-28T14:13:50.090Z,4
2023-03-28T14:14:56.933Z,3
2023-03-28T14:16:03.763Z,4
2023-03-28T14:17:10.696Z,5
2023-03-28T14:18:17.481Z,3
2023-03-28T14:19:29.407Z,4
2023-03-28T14:20:40.458Z,4
2023-03-28T14:21:46.139Z,4
2023-03-28T14:23:00.196Z,3
2023-03-28T14:23:59.850Z,3
2023-03-28T14:25:09.387Z,3
2023-03-28T14:26:16.297Z,2
2023-03-28T14:27:23.126Z,3
2023-03-28T14:28:35.210Z,3
2023-03-28T14:29:42.073Z,3
2023-03-28T14:30:53.971Z,3
2023-03-28T14:32:00.866Z,3
2023-03-28T14:33:07.824Z,3
2023-03-28T14:34:14.565Z,3
2023-03-28T14:35:24.136Z,3
2023-03-28T14:36:30.996Z,3
2023-03-28T14:37:37.725Z,3
2023-03-28T14:38:49.580Z,7
2023-03-28T14:39:56.377Z,13
2023-03-28T14:41:03.259Z,13
2023-03-28T14:42:15.144Z,21
2023-03-28T14:43:21.961Z,30
2023-03-28T14:44:28.723Z,31
2023-03-28T14:45:35.700Z,18
2023-03-28T14:46:42.542Z,30
2023-03-28T14:47:49.409Z,23
2023-03-28T14:48:56.217Z,55
2023-03-28T14:50:03.079Z,33
2023-03-28T14:51:10.213Z,43
2023-03-28T14:52:17.092Z,35
2023-03-28T14:53:28.992Z,45
2023-03-28T14:54:40.873Z,51
2023-03-28T14:55:47.737Z,36
2023-03-28T14:56:54.708Z,20
2023-03-28T14:58:01.476Z,34
2023-03-28T14:59:08.341Z,47
2023-03-28T15:00:15.236Z,17
2023-03-28T15:01:24.860Z,27
2023-03-28T15:02:31.745Z,37
2023-03-28T15:03:38.744Z,27
2023-03-28T15:04:45.449Z,17
2023-03-28T15:05:52.253Z,20
2023-03-28T15:06:59.052Z,24
2023-03-28T15:08:05.888Z,9
2023-03-28T15:09:12.819Z,17
2023-03-28T15:10:29.707Z,11
2023-03-28T15:11:36.528Z,3
2023-03-28T15:12:43.351Z,3
2023-03-28T15:13:50.219Z,3
2023-03-28T15:15:02.075Z,3
2023-03-28T15:16:09.311Z,3
2023-03-28T15:17:21.130Z,3
2023-03-28T15:18:28.029Z,3
2023-03-28T15:19:34.851Z,3
2023-03-28T15:20:41.651Z,3
2023-03-28T15:21:48.577Z,4
2023-03-28T15:22:58.188Z,3
2023-03-28T15:24:04.882Z,3
2023-03-28T15:25:14.530Z,2
2023-03-28T15:26:21.551Z,3
2023-03-28T15:27:33.437Z,3
2023-03-28T15:28:40.361Z,3
2023-03-28T15:29:47.132Z,5
2023-03-28T15:30:53.990Z,5
2023-03-28T15:32:00.865Z,4
2023-03-28T15:33:10.834Z,3
2023-03-28T15:34:20.160Z,3
2023-03-28T15:35:28.185Z,3
2023-03-28T15:36:35.032Z,3
2023-03-28T15:37:41.947Z,3
2023-03-28T15:38:48.891Z,3
2023-03-28T15:40:03.664Z,4
2023-03-28T15:41:20.764Z,4
2023-03-28T15:42:27.527Z,5
2023-03-28T15:43:36.875Z,3
2023-03-28T15:44:43.702Z,4
2023-03-28T15:45:55.608Z,3
2023-03-28T15:47:02.326Z,4
2023-03-28T15:48:09.133Z,5
2023-03-28T15:49:18.605Z,4
2023-03-28T15:50:25.587Z,4
2023-03-28T15:51:35.480Z,3
2023-03-28T15:52:45.241Z,3
2023-03-28T15:53:52.165Z,3
2023-03-28T15:54:58.900Z,3
2023-03-28T15:56:05.757Z,4
2023-03-28T15:57:15.210Z,5
2023-03-28T15:58:25.089Z,3
2023-03-28T15:59:31.881Z,4
2023-03-28T16:00:38.832Z,4
2023-03-28T16:01:48.228Z,3
2023-03-28T16:02:55.158Z,3
2023-03-28T16:04:01.967Z,3
2023-03-28T16:05:18.878Z,4
2023-03-28T16:06:31.993Z,3
2023-03-28T16:07:32.485Z,2
2023-03-28T16:08:44.515Z,3
2023-03-28T16:09:51.383Z,3
2023-03-28T16:10:58.161Z,2
2023-03-28T16:12:04.993Z,3
2023-03-28T16:13:11.862Z,3
2023-03-28T16:14:18.677Z,3
2023-03-28T16:15:25.478Z,2
2023-03-28T16:16:32.396Z,3
2023-03-28T16:17:39.192Z,3
2023-03-28T16:18:46.025Z,4
2023-03-28T16:19:52.855Z,5
2023-03-28T16:20:59.679Z,6
2023-03-28T16:22:06.927Z,6
2023-03-28T16:23:13.741Z,4
2023-03-28T16:24:20.614Z,4
2023-03-28T16:25:27.598Z,3
2023-03-28T16:26:34.466Z,3
2023-03-28T16:27:41.238Z,4
2023-03-28T16:28:48.000Z,4
2023-03-28T16:29:54.733Z,3
2023-03-28T16:31:01.607Z,3
2023-03-28T16:32:08.636Z,4
2023-03-28T16:33:15.425Z,3
2023-03-28T16:34:22.235Z,3
2023-03-28T16:35:29.082Z,3
2023-03-28T16:36:35.879Z,3
2023-03-28T16:37:42.721Z,3
2023-03-28T16:38:49.480Z,3
2023-03-28T16:39:56.278Z,2
2023-03-28T16:41:03.135Z,4
2023-03-28T16:42:09.958Z,3
2023-03-28T16:43:16.790Z,3
2023-03-28T16:44:23.589Z,3
2023-03-28T16:45:30.469Z,4
2023-03-28T16:46:37.394Z,4
2023-03-28T16:47:43.993Z,3
2023-03-28T16:48:50.801Z,4